sensor_id;sensor_type;location;lat;lon;timestamp;noise_LAeq;noise_LA_min;noise_LA_max;noise_LA01;noise_LA95
41704;Laerm;861;48.808;9.006;2024-03-08T00:00:13;37.13;35.77;38.25;;
41704;Laerm;861;48.808;9.006;2024-03-08T00:02:46;37.14;35.89;38.31;;
41704;Laerm;861;48.808;9.006;2024-03-08T00:05:15;37.12;35.72;38.31;;
41704;Laerm;861;48.808;9.006;2024-03-08T00:07:42;37.11;35.61;38.48;;
41704;Laerm;861;48.808;9.006;2024-03-08T00:10:12;37.12;35.96;38.29;;
41704;Laerm;861;48.808;9.006;2024-03-08T00:12:42;37.10;35.87;38.24;;
41704;Laerm;861;48.808;9.006;2024-03-08T00:15:16;37.12;35.93;38.21;;
41704;Laerm;861;48.808;9.006;2024-03-08T00:17:45;37.12;35.67;38.32;;
41704;Laerm;861;48.808;9.006;2024-03-08T00:20:12;37.12;35.65;38.39;;
41704;Laerm;861;48.808;9.006;2024-03-08T00:22:40;37.13;35.72;38.47;;
41704;Laerm;861;48.808;9.006;2024-03-08T00:25:08;37.14;35.89;38.34;;
41704;Laerm;861;48.808;9.006;2024-03-08T00:27:39;37.13;35.84;38.38;;
41704;Laerm;861;48.808;9.006;2024-03-08T00:30:07;37.16;36.00;38.22;;
41704;Laerm;861;48.808;9.006;2024-03-08T00:32:34;37.17;35.71;38.44;;
41704;Laerm;861;48.808;9.006;2024-03-08T00:35:00;37.15;35.78;38.23;;
41704;Laerm;861;48.808;9.006;2024-03-08T00:37:28;37.14;35.96;38.34;;
41704;Laerm;861;48.808;9.006;2024-03-08T00:39:54;37.14;35.88;38.34;;
41704;Laerm;861;48.808;9.006;2024-03-08T00:42:21;37.10;35.77;38.43;;
41704;Laerm;861;48.808;9.006;2024-03-08T00:44:48;37.10;35.73;38.44;;
41704;Laerm;861;48.808;9.006;2024-03-08T00:47:17;37.09;35.78;38.14;;
41704;Laerm;861;48.808;9.006;2024-03-08T00:49:44;37.09;35.65;38.18;;
41704;Laerm;861;48.808;9.006;2024-03-08T00:52:11;37.07;35.91;38.23;;
41704;Laerm;861;48.808;9.006;2024-03-08T00:54:37;37.06;35.61;38.41;;
41704;Laerm;861;48.808;9.006;2024-03-08T00:57:05;37.03;35.79;38.29;;
41704;Laerm;861;48.808;9.006;2024-03-08T00:59:33;37.03;35.64;38.20;;
41704;Laerm;861;48.808;9.006;2024-03-08T01:02:03;37.02;35.72;38.13;;
41704;Laerm;861;48.808;9.006;2024-03-08T01:04:30;37.00;35.72;38.13;;
41704;Laerm;861;48.808;9.006;2024-03-08T01:07:00;36.98;35.82;38.21;;
41704;Laerm;861;48.808;9.006;2024-03-08T01:09:27;37.02;35.84;38.15;;
41704;Laerm;861;48.808;9.006;2024-03-08T01:11:55;37.03;35.77;38.62;;
41704;Laerm;861;48.808;9.006;2024-03-08T01:14:24;37.05;35.77;38.31;;
41704;Laerm;861;48.808;9.006;2024-03-08T01:16:56;37.02;35.51;38.53;;
41704;Laerm;861;48.808;9.006;2024-03-08T01:19:22;37.01;35.83;38.11;;
41704;Laerm;861;48.808;9.006;2024-03-08T01:21:50;37.00;35.66;38.38;;
41704;Laerm;861;48.808;9.006;2024-03-08T01:24:17;36.99;35.45;38.01;;
41704;Laerm;861;48.808;9.006;2024-03-08T01:26:44;36.99;35.73;38.08;;
41704;Laerm;861;48.808;9.006;2024-03-08T01:29:11;36.96;35.60;38.09;;
41704;Laerm;861;48.808;9.006;2024-03-08T01:31:37;36.93;35.54;38.15;;
41704;Laerm;861;48.808;9.006;2024-03-08T01:34:04;36.91;35.44;38.04;;
41704;Laerm;861;48.808;9.006;2024-03-08T01:36:31;36.89;35.65;38.24;;
41704;Laerm;861;48.808;9.006;2024-03-08T01:38:57;36.90;35.71;38.27;;
41704;Laerm;861;48.808;9.006;2024-03-08T01:41:24;36.91;35.56;38.15;;
41704;Laerm;861;48.808;9.006;2024-03-08T01:43:50;36.91;35.71;38.04;;
41704;Laerm;861;48.808;9.006;2024-03-08T01:46:23;36.92;35.56;38.07;;
41704;Laerm;861;48.808;9.006;2024-03-08T01:48:50;36.94;35.69;38.16;;
41704;Laerm;861;48.808;9.006;2024-03-08T01:51:18;36.92;35.66;38.05;;
41704;Laerm;861;48.808;9.006;2024-03-08T01:53:48;36.93;35.67;38.23;;
41704;Laerm;861;48.808;9.006;2024-03-08T01:56:16;36.93;35.68;38.10;;
41704;Laerm;861;48.808;9.006;2024-03-08T01:58:45;36.92;35.35;38.11;;
41704;Laerm;861;48.808;9.006;2024-03-08T02:01:15;36.90;35.64;37.95;;
41704;Laerm;861;48.808;9.006;2024-03-08T02:03:42;36.87;35.66;38.05;;
41704;Laerm;861;48.808;9.006;2024-03-08T02:06:14;36.87;35.52;38.14;;
41704;Laerm;861;48.808;9.006;2024-03-08T02:08:47;36.88;35.68;38.16;;
41704;Laerm;861;48.808;9.006;2024-03-08T02:11:14;36.87;35.65;38.08;;
41704;Laerm;861;48.808;9.006;2024-03-08T02:13:43;36.84;35.64;38.18;;
41704;Laerm;861;48.808;9.006;2024-03-08T02:16:10;36.84;35.50;38.06;;
41704;Laerm;861;48.808;9.006;2024-03-08T02:18:37;36.84;35.47;38.15;;
41704;Laerm;861;48.808;9.006;2024-03-08T02:21:07;36.83;35.70;38.07;;
41704;Laerm;861;48.808;9.006;2024-03-08T02:23:34;36.81;35.60;38.19;;
41704;Laerm;861;48.808;9.006;2024-03-08T02:26:01;36.81;35.43;38.02;;
41704;Laerm;861;48.808;9.006;2024-03-08T02:28:28;36.82;35.62;37.99;;
41704;Laerm;861;48.808;9.006;2024-03-08T02:30:55;36.80;35.51;37.97;;
41704;Laerm;861;48.808;9.006;2024-03-08T02:33:27;36.80;35.56;37.96;;
41704;Laerm;861;48.808;9.006;2024-03-08T02:35:54;36.80;35.51;38.16;;
41704;Laerm;861;48.808;9.006;2024-03-08T02:38:23;36.80;35.23;37.92;;
41704;Laerm;861;48.808;9.006;2024-03-08T02:40:53;36.79;35.48;37.95;;
41704;Laerm;861;48.808;9.006;2024-03-08T02:43:22;36.80;35.58;38.00;;
41704;Laerm;861;48.808;9.006;2024-03-08T02:45:49;36.82;35.55;38.09;;
41704;Laerm;861;48.808;9.006;2024-03-08T02:48:16;36.83;35.69;38.13;;
41704;Laerm;861;48.808;9.006;2024-03-08T02:50:44;36.80;35.59;38.02;;
41704;Laerm;861;48.808;9.006;2024-03-08T02:53:12;36.76;35.47;38.03;;
41704;Laerm;861;48.808;9.006;2024-03-08T02:55:40;36.70;35.39;37.94;;
41704;Laerm;861;48.808;9.006;2024-03-08T02:58:08;36.68;35.34;37.98;;
41704;Laerm;861;48.808;9.006;2024-03-08T03:00:38;36.66;35.38;37.91;;
41704;Laerm;861;48.808;9.006;2024-03-08T03:03:05;36.64;35.40;37.92;;
41704;Laerm;861;48.808;9.006;2024-03-08T03:05:33;36.62;35.03;38.05;;
41704;Laerm;861;48.808;9.006;2024-03-08T03:08:02;36.59;35.36;37.84;;
41704;Laerm;861;48.808;9.006;2024-03-08T03:10:35;36.59;35.25;38.00;;
41704;Laerm;861;48.808;9.006;2024-03-08T03:13:02;36.57;35.34;37.90;;
41704;Laerm;861;48.808;9.006;2024-03-08T03:15:30;36.56;35.18;37.65;;
41704;Laerm;861;48.808;9.006;2024-03-08T03:17:57;36.55;35.23;37.83;;
41704;Laerm;861;48.808;9.006;2024-03-08T03:20:23;36.56;35.14;37.81;;
41704;Laerm;861;48.808;9.006;2024-03-08T03:22:53;36.59;35.30;37.66;;
41704;Laerm;861;48.808;9.006;2024-03-08T03:25:21;36.58;35.52;37.83;;
41704;Laerm;861;48.808;9.006;2024-03-08T03:27:52;36.55;35.34;37.89;;
41704;Laerm;861;48.808;9.006;2024-03-08T03:30:19;36.54;35.09;37.67;;
41704;Laerm;861;48.808;9.006;2024-03-08T03:32:49;36.54;35.14;37.64;;
41704;Laerm;861;48.808;9.006;2024-03-08T03:35:23;36.54;35.36;37.64;;
41704;Laerm;861;48.808;9.006;2024-03-08T03:37:50;36.55;35.15;37.74;;
41704;Laerm;861;48.808;9.006;2024-03-08T03:40:38;36.57;35.36;37.98;;
41704;Laerm;861;48.808;9.006;2024-03-08T03:43:06;36.56;35.06;37.97;;
41704;Laerm;861;48.808;9.006;2024-03-08T03:45:33;36.57;35.49;37.77;;
41704;Laerm;861;48.808;9.006;2024-03-08T03:48:07;36.58;35.26;37.79;;
41704;Laerm;861;48.808;9.006;2024-03-08T03:50:37;36.60;35.45;37.92;;
41704;Laerm;861;48.808;9.006;2024-03-08T03:53:05;36.62;35.41;37.86;;
41704;Laerm;861;48.808;9.006;2024-03-08T03:55:36;36.65;35.44;37.86;;
41704;Laerm;861;48.808;9.006;2024-03-08T03:58:05;36.68;35.52;37.89;;
41704;Laerm;861;48.808;9.006;2024-03-08T04:00:32;36.67;35.63;37.99;;
41704;Laerm;861;48.808;9.006;2024-03-08T04:02:59;36.72;35.60;38.04;;
41704;Laerm;861;48.808;9.006;2024-03-08T04:05:27;36.76;35.60;37.84;;
41704;Laerm;861;48.808;9.006;2024-03-08T04:07:53;36.84;35.36;38.00;;
41704;Laerm;861;48.808;9.006;2024-03-08T04:10:20;36.88;35.83;38.08;;
41704;Laerm;861;48.808;9.006;2024-03-08T04:12:47;36.94;35.63;38.18;;
41704;Laerm;861;48.808;9.006;2024-03-08T04:15:15;36.99;35.68;38.35;;
41704;Laerm;861;48.808;9.006;2024-03-08T04:17:41;37.02;35.76;38.21;;
41704;Laerm;861;48.808;9.006;2024-03-08T04:20:08;37.05;35.63;38.34;;
41704;Laerm;861;48.808;9.006;2024-03-08T04:22:39;37.05;35.83;38.34;;
41704;Laerm;861;48.808;9.006;2024-03-08T04:25:07;37.05;35.76;38.34;;
41704;Laerm;861;48.808;9.006;2024-03-08T04:27:35;37.04;35.77;38.32;;
41704;Laerm;861;48.808;9.006;2024-03-08T04:30:04;37.03;35.60;38.23;;
41704;Laerm;861;48.808;9.006;2024-03-08T04:32:30;37.03;35.72;38.39;;
41704;Laerm;861;48.808;9.006;2024-03-08T04:34:58;37.03;35.79;38.05;;
41704;Laerm;861;48.808;9.006;2024-03-08T04:37:27;37.03;35.65;38.59;;
41704;Laerm;861;48.808;9.006;2024-03-08T04:39:56;37.03;35.71;38.13;;
41704;Laerm;861;48.808;9.006;2024-03-08T04:42:24;36.99;35.73;38.15;;
41704;Laerm;861;48.808;9.006;2024-03-08T04:44:52;37.03;35.58;38.38;;
41704;Laerm;861;48.808;9.006;2024-03-08T04:47:20;37.03;35.80;38.16;;
41704;Laerm;861;48.808;9.006;2024-03-08T04:49:46;37.03;35.63;38.21;;
41704;Laerm;861;48.808;9.006;2024-03-08T04:52:13;37.03;35.72;38.37;;
41704;Laerm;861;48.808;9.006;2024-03-08T04:54:39;37.04;35.70;38.03;;
41704;Laerm;861;48.808;9.006;2024-03-08T04:57:06;37.00;35.71;38.33;;
41704;Laerm;861;48.808;9.006;2024-03-08T04:59:33;36.99;35.63;38.33;;
41704;Laerm;861;48.808;9.006;2024-03-08T05:02:00;36.97;35.84;38.11;;
41704;Laerm;861;48.808;9.006;2024-03-08T05:04:27;36.97;35.52;38.32;;
41704;Laerm;861;48.808;9.006;2024-03-08T05:06:53;36.97;35.64;38.16;;
41704;Laerm;861;48.808;9.006;2024-03-08T05:09:20;36.94;35.73;38.20;;
41704;Laerm;861;48.808;9.006;2024-03-08T05:11:47;36.93;35.62;38.17;;
41704;Laerm;861;48.808;9.006;2024-03-08T05:14:15;36.94;35.41;38.16;;
41704;Laerm;861;48.808;9.006;2024-03-08T05:16:47;36.94;35.38;38.11;;
41704;Laerm;861;48.808;9.006;2024-03-08T05:19:21;36.95;35.40;38.27;;
41704;Laerm;861;48.808;9.006;2024-03-08T05:21:49;36.93;35.75;38.14;;
41704;Laerm;861;48.808;9.006;2024-03-08T05:24:18;36.92;35.70;38.01;;
41704;Laerm;861;48.808;9.006;2024-03-08T05:26:46;36.91;35.66;38.24;;
41704;Laerm;861;48.808;9.006;2024-03-08T05:29:14;36.92;35.73;38.01;;
41704;Laerm;861;48.808;9.006;2024-03-08T05:31:49;36.96;35.64;38.28;;
41704;Laerm;861;48.808;9.006;2024-03-08T05:34:17;36.95;35.49;38.13;;
41704;Laerm;861;48.808;9.006;2024-03-08T05:36:45;36.95;35.80;38.38;;
41704;Laerm;861;48.808;9.006;2024-03-08T05:39:17;36.97;35.81;38.16;;
41704;Laerm;861;48.808;9.006;2024-03-08T05:41:45;37.00;35.41;38.08;;
41704;Laerm;861;48.808;9.006;2024-03-08T05:44:13;37.03;35.70;38.33;;
41704;Laerm;861;48.808;9.006;2024-03-08T05:46:40;37.04;35.73;38.32;;
41704;Laerm;861;48.808;9.006;2024-03-08T05:49:08;37.03;35.64;38.34;;
41704;Laerm;861;48.808;9.006;2024-03-08T05:51:38;37.01;35.59;38.30;;
41704;Laerm;861;48.808;9.006;2024-03-08T05:54:11;37.03;35.77;38.22;;
41704;Laerm;861;48.808;9.006;2024-03-08T05:56:40;37.04;35.83;38.20;;
41704;Laerm;861;48.808;9.006;2024-03-08T05:59:11;37.07;35.69;38.10;;
41704;Laerm;861;48.808;9.006;2024-03-08T06:01:38;37.08;35.72;38.38;;
41704;Laerm;861;48.808;9.006;2024-03-08T06:04:07;37.08;35.87;38.22;;
41704;Laerm;861;48.808;9.006;2024-03-08T06:06:33;37.08;35.76;38.36;;
41704;Laerm;861;48.808;9.006;2024-03-08T06:09:00;37.11;36.00;38.30;;
41704;Laerm;861;48.808;9.006;2024-03-08T06:11:27;37.12;35.85;38.46;;
41704;Laerm;861;48.808;9.006;2024-03-08T06:13:55;37.15;35.59;38.35;;
41704;Laerm;861;48.808;9.006;2024-03-08T06:16:27;37.16;35.83;38.39;;
41704;Laerm;861;48.808;9.006;2024-03-08T06:18:59;37.19;36.00;38.43;;
41704;Laerm;861;48.808;9.006;2024-03-08T06:21:28;37.20;35.99;38.46;;
41704;Laerm;861;48.808;9.006;2024-03-08T06:23:55;37.23;35.85;38.37;;
41704;Laerm;861;48.808;9.006;2024-03-08T06:26:24;37.23;36.01;38.54;;
41704;Laerm;861;48.808;9.006;2024-03-08T06:28:51;37.25;36.02;38.42;;
41704;Laerm;861;48.808;9.006;2024-03-08T06:31:18;37.28;35.96;38.44;;
41704;Laerm;861;48.808;9.006;2024-03-08T06:33:46;37.31;35.89;38.50;;
41704;Laerm;861;48.808;9.006;2024-03-08T06:36:17;37.33;36.00;38.46;;
41704;Laerm;861;48.808;9.006;2024-03-08T06:38:51;37.36;35.92;38.48;;
41704;Laerm;861;48.808;9.006;2024-03-08T06:41:20;37.36;36.06;38.44;;
41704;Laerm;861;48.808;9.006;2024-03-08T06:43:48;37.37;36.18;38.73;;
41704;Laerm;861;48.808;9.006;2024-03-08T06:46:18;37.40;36.00;38.69;;
41704;Laerm;861;48.808;9.006;2024-03-08T06:48:46;37.40;35.75;38.68;;
41704;Laerm;861;48.808;9.006;2024-03-08T06:51:13;37.39;36.23;38.46;;
41704;Laerm;861;48.808;9.006;2024-03-08T06:53:40;37.39;35.99;38.64;;
41704;Laerm;861;48.808;9.006;2024-03-08T06:56:07;37.39;36.26;38.71;;
41704;Laerm;861;48.808;9.006;2024-03-08T06:58:34;37.42;36.21;38.69;;
41704;Laerm;861;48.808;9.006;2024-03-08T07:01:00;37.43;36.18;38.59;;
41704;Laerm;861;48.808;9.006;2024-03-08T07:03:30;37.44;36.16;38.70;;
41704;Laerm;861;48.808;9.006;2024-03-08T07:05:58;37.44;36.11;38.63;;
41704;Laerm;861;48.808;9.006;2024-03-08T07:08:25;37.47;36.20;38.79;;
41704;Laerm;861;48.808;9.006;2024-03-08T07:10:54;37.48;36.22;39.02;;
41704;Laerm;861;48.808;9.006;2024-03-08T07:13:21;37.51;36.12;38.82;;
41704;Laerm;861;48.808;9.006;2024-03-08T07:15:47;37.52;36.23;38.83;;
41704;Laerm;861;48.808;9.006;2024-03-08T07:18:14;37.52;36.32;38.83;;
41704;Laerm;861;48.808;9.006;2024-03-08T07:20:42;37.52;36.16;38.74;;
41704;Laerm;861;48.808;9.006;2024-03-08T07:23:09;37.52;36.31;39.00;;
41704;Laerm;861;48.808;9.006;2024-03-08T07:25:38;37.53;36.28;38.67;;
41704;Laerm;861;48.808;9.006;2024-03-08T07:28:05;37.52;36.17;38.76;;
41704;Laerm;861;48.808;9.006;2024-03-08T07:30:33;37.53;36.14;38.73;;
41704;Laerm;861;48.808;9.006;2024-03-08T07:33:26;37.55;36.12;38.76;;
41704;Laerm;861;48.808;9.006;2024-03-08T07:35:53;37.55;36.21;38.87;;
41704;Laerm;861;48.808;9.006;2024-03-08T07:38:20;37.54;36.12;38.65;;
41704;Laerm;861;48.808;9.006;2024-03-08T07:40:47;37.54;36.26;38.66;;
41704;Laerm;861;48.808;9.006;2024-03-08T07:43:14;37.54;36.34;38.63;;
41704;Laerm;861;48.808;9.006;2024-03-08T07:45:41;37.55;36.30;38.93;;
41704;Laerm;861;48.808;9.006;2024-03-08T07:48:08;37.55;36.13;38.81;;
41704;Laerm;861;48.808;9.006;2024-03-08T07:50:40;37.56;36.28;38.80;;
41704;Laerm;861;48.808;9.006;2024-03-08T07:53:08;37.56;36.25;38.67;;
41704;Laerm;861;48.808;9.006;2024-03-08T07:55:35;37.55;36.38;38.92;;
41704;Laerm;861;48.808;9.006;2024-03-08T07:58:03;37.57;36.15;38.66;;
41704;Laerm;861;48.808;9.006;2024-03-08T08:00:31;37.56;36.13;38.72;;
41704;Laerm;861;48.808;9.006;2024-03-08T08:02:58;37.57;36.41;38.83;;
41704;Laerm;861;48.808;9.006;2024-03-08T08:05:25;37.56;36.15;38.70;;
41704;Laerm;861;48.808;9.006;2024-03-08T08:07:52;37.57;36.37;38.74;;
41704;Laerm;861;48.808;9.006;2024-03-08T08:10:20;37.56;36.31;38.79;;
41704;Laerm;861;48.808;9.006;2024-03-08T08:12:51;37.56;36.36;38.69;;
41704;Laerm;861;48.808;9.006;2024-03-08T08:15:18;37.56;36.39;38.82;;
41704;Laerm;861;48.808;9.006;2024-03-08T08:17:46;37.55;36.35;38.86;;
41704;Laerm;861;48.808;9.006;2024-03-08T08:20:14;37.54;36.31;38.66;;
41704;Laerm;861;48.808;9.006;2024-03-08T08:22:42;37.55;36.17;38.69;;
41704;Laerm;861;48.808;9.006;2024-03-08T08:25:12;37.55;36.24;38.80;;
41704;Laerm;861;48.808;9.006;2024-03-08T08:27:42;37.56;36.28;38.77;;
41704;Laerm;861;48.808;9.006;2024-03-08T08:30:10;37.57;36.10;38.80;;
41704;Laerm;861;48.808;9.006;2024-03-08T08:32:38;37.57;36.36;38.95;;
41704;Laerm;861;48.808;9.006;2024-03-08T08:35:13;37.58;36.16;39.07;;
41704;Laerm;861;48.808;9.006;2024-03-08T08:37:40;37.57;36.22;38.92;;
41704;Laerm;861;48.808;9.006;2024-03-08T08:40:08;37.60;36.42;39.04;;
41704;Laerm;861;48.808;9.006;2024-03-08T08:42:41;37.57;36.09;38.91;;
41704;Laerm;861;48.808;9.006;2024-03-08T08:45:09;37.58;36.35;38.93;;
41704;Laerm;861;48.808;9.006;2024-03-08T08:47:36;37.57;36.10;38.72;;
41704;Laerm;861;48.808;9.006;2024-03-08T08:50:05;37.58;36.36;38.85;;
41704;Laerm;861;48.808;9.006;2024-03-08T08:52:32;37.59;36.03;38.94;;
41704;Laerm;861;48.808;9.006;2024-03-08T08:54:59;37.58;36.09;38.89;;
41704;Laerm;861;48.808;9.006;2024-03-08T08:57:25;37.59;36.20;38.69;;
41704;Laerm;861;48.808;9.006;2024-03-08T08:59:53;37.57;36.31;38.80;;
41704;Laerm;861;48.808;9.006;2024-03-08T09:02:20;37.56;36.14;38.62;;
41704;Laerm;861;48.808;9.006;2024-03-08T09:04:47;37.56;36.03;38.97;;
41704;Laerm;861;48.808;9.006;2024-03-08T09:07:15;37.58;36.14;38.93;;
41704;Laerm;861;48.808;9.006;2024-03-08T09:09:43;37.58;36.15;38.78;;
41704;Laerm;861;48.808;9.006;2024-03-08T09:12:10;37.58;36.38;38.97;;
41704;Laerm;861;48.808;9.006;2024-03-08T09:14:41;37.58;36.07;38.76;;
41704;Laerm;861;48.808;9.006;2024-03-08T09:17:09;37.57;36.29;38.91;;
41704;Laerm;861;48.808;9.006;2024-03-08T09:19:36;37.60;36.45;38.82;;
41704;Laerm;861;48.808;9.006;2024-03-08T09:22:04;37.59;36.28;38.91;;
41704;Laerm;861;48.808;9.006;2024-03-08T09:24:31;37.61;36.25;38.80;;
41704;Laerm;861;48.808;9.006;2024-03-08T09:26:58;37.61;36.27;38.82;;
41704;Laerm;861;48.808;9.006;2024-03-08T09:29:25;37.61;36.07;38.84;;
41704;Laerm;861;48.808;9.006;2024-03-08T09:31:52;37.60;36.16;39.42;;
41704;Laerm;861;48.808;9.006;2024-03-08T09:34:19;37.59;36.21;38.98;;
41704;Laerm;861;48.808;9.006;2024-03-08T09:36:46;37.59;36.26;38.82;;
41704;Laerm;861;48.808;9.006;2024-03-08T09:39:12;37.60;36.31;39.04;;
41704;Laerm;861;48.808;9.006;2024-03-08T09:41:44;37.61;36.39;38.86;;
41704;Laerm;861;48.808;9.006;2024-03-08T09:44:11;37.61;36.20;38.84;;
41704;Laerm;861;48.808;9.006;2024-03-08T09:46:38;37.62;36.52;38.84;;
41704;Laerm;861;48.808;9.006;2024-03-08T09:49:06;37.61;36.37;38.93;;
41704;Laerm;861;48.808;9.006;2024-03-08T09:51:35;37.60;36.38;38.78;;
41704;Laerm;861;48.808;9.006;2024-03-08T09:54:03;37.61;36.39;38.80;;
41704;Laerm;861;48.808;9.006;2024-03-08T09:56:34;37.62;36.27;38.75;;
41704;Laerm;861;48.808;9.006;2024-03-08T09:59:02;37.63;36.16;38.92;;
41704;Laerm;861;48.808;9.006;2024-03-08T10:01:38;37.62;36.32;38.98;;
41704;Laerm;861;48.808;9.006;2024-03-08T10:04:06;37.61;36.15;38.83;;
41704;Laerm;861;48.808;9.006;2024-03-08T10:06:33;37.63;36.33;39.05;;
41704;Laerm;861;48.808;9.006;2024-03-08T10:08:59;37.63;36.28;38.94;;
41704;Laerm;861;48.808;9.006;2024-03-08T10:11:26;37.62;36.32;39.16;;
41704;Laerm;861;48.808;9.006;2024-03-08T10:13:54;37.62;36.30;38.88;;
41704;Laerm;861;48.808;9.006;2024-03-08T10:16:21;37.63;36.43;38.83;;
41704;Laerm;861;48.808;9.006;2024-03-08T10:18:50;37.64;36.29;38.91;;
41704;Laerm;861;48.808;9.006;2024-03-08T10:21:18;37.63;36.20;38.95;;
41704;Laerm;861;48.808;9.006;2024-03-08T10:23:46;37.65;36.22;38.90;;
41704;Laerm;861;48.808;9.006;2024-03-08T10:26:17;37.65;36.41;38.84;;
41704;Laerm;861;48.808;9.006;2024-03-08T10:28:49;37.66;36.16;39.26;;
41704;Laerm;861;48.808;9.006;2024-03-08T10:31:17;37.66;36.27;38.76;;
41704;Laerm;861;48.808;9.006;2024-03-08T10:33:46;37.67;36.47;38.78;;
41704;Laerm;861;48.808;9.006;2024-03-08T10:36:15;37.66;36.24;38.90;;
41704;Laerm;861;48.808;9.006;2024-03-08T10:38:45;37.64;36.26;38.95;;
41704;Laerm;861;48.808;9.006;2024-03-08T10:41:16;37.65;36.27;39.15;;
41704;Laerm;861;48.808;9.006;2024-03-08T10:44:23;37.67;36.33;39.08;;
41704;Laerm;861;48.808;9.006;2024-03-08T10:47:15;37.69;36.44;39.06;;
41704;Laerm;861;48.808;9.006;2024-03-08T10:50:18;37.69;36.37;39.24;;
41704;Laerm;861;48.808;9.006;2024-03-08T10:52:52;37.69;36.34;38.93;;
41704;Laerm;861;48.808;9.006;2024-03-08T10:55:20;37.69;36.40;38.92;;
41704;Laerm;861;48.808;9.006;2024-03-08T10:57:48;37.68;36.11;38.94;;
41704;Laerm;861;48.808;9.006;2024-03-08T11:00:15;37.68;36.30;39.48;;
41704;Laerm;861;48.808;9.006;2024-03-08T11:02:46;37.69;36.33;39.05;;
41704;Laerm;861;48.808;9.006;2024-03-08T11:05:40;37.69;36.32;39.30;;
41704;Laerm;861;48.808;9.006;2024-03-08T11:08:19;37.71;36.32;38.85;;
41704;Laerm;861;48.808;9.006;2024-03-08T11:10:55;37.73;36.45;38.87;;
41704;Laerm;861;48.808;9.006;2024-03-08T11:13:42;37.74;36.35;38.97;;
41704;Laerm;861;48.808;9.006;2024-03-08T11:19:24;37.76;36.39;38.99;;
41704;Laerm;861;48.808;9.006;2024-03-08T11:22:04;37.78;36.42;39.08;;
41704;Laerm;861;48.808;9.006;2024-03-08T11:24:40;37.82;36.42;39.12;;
41704;Laerm;861;48.808;9.006;2024-03-08T11:27:09;37.83;36.50;39.07;;
41704;Laerm;861;48.808;9.006;2024-03-08T11:29:37;37.80;36.24;39.14;;
41704;Laerm;861;48.808;9.006;2024-03-08T11:32:16;37.80;36.50;39.01;;
41704;Laerm;861;48.808;9.006;2024-03-08T11:34:49;37.81;36.29;39.10;;
41704;Laerm;861;48.808;9.006;2024-03-08T11:37:21;37.80;36.47;39.30;;
41704;Laerm;861;48.808;9.006;2024-03-08T11:39:54;37.79;36.30;39.21;;
41704;Laerm;861;48.808;9.006;2024-03-08T11:42:26;37.74;36.51;39.02;;
41704;Laerm;861;48.808;9.006;2024-03-08T11:44:53;37.69;36.02;40.33;;
41704;Laerm;861;48.808;9.006;2024-03-08T11:47:21;37.77;36.48;40.86;;
41704;Laerm;861;48.808;9.006;2024-03-08T11:49:48;38.03;36.69;39.36;;
41704;Laerm;861;48.808;9.006;2024-03-08T11:52:18;38.09;36.56;39.51;;
41704;Laerm;861;48.808;9.006;2024-03-08T11:54:55;38.02;36.70;39.58;;
41704;Laerm;861;48.808;9.006;2024-03-08T11:57:25;37.88;36.54;39.04;;
41704;Laerm;861;48.808;9.006;2024-03-08T11:59:54;37.85;36.29;39.35;;
41704;Laerm;861;48.808;9.006;2024-03-08T12:02:21;37.87;36.37;39.18;;
41704;Laerm;861;48.808;9.006;2024-03-08T12:04:59;37.78;36.39;38.93;;
41704;Laerm;861;48.808;9.006;2024-03-08T12:07:26;37.63;36.35;39.39;;
41704;Laerm;861;48.808;9.006;2024-03-08T12:10:21;37.48;36.01;41.06;;
41704;Laerm;861;48.808;9.006;2024-03-08T12:12:54;37.48;36.12;38.76;;
41704;Laerm;861;48.808;9.006;2024-03-08T12:15:26;37.40;35.83;38.77;;
41704;Laerm;861;48.808;9.006;2024-03-08T12:17:55;37.46;36.02;38.83;;
41704;Laerm;861;48.808;9.006;2024-03-08T12:20:25;37.33;35.81;38.94;;
41704;Laerm;861;48.808;9.006;2024-03-08T12:22:55;37.36;35.98;38.72;;
41704;Laerm;861;48.808;9.006;2024-03-08T12:25:43;37.26;35.70;38.48;;
41704;Laerm;861;48.808;9.006;2024-03-08T12:28:15;37.24;35.73;39.00;;
41704;Laerm;861;48.808;9.006;2024-03-08T12:30:53;37.16;35.76;38.47;;
41704;Laerm;861;48.808;9.006;2024-03-08T12:33:21;37.13;35.75;38.54;;
41704;Laerm;861;48.808;9.006;2024-03-08T12:35:54;37.10;35.77;38.56;;
41704;Laerm;861;48.808;9.006;2024-03-08T12:38:23;36.95;35.33;38.33;;
41704;Laerm;861;48.808;9.006;2024-03-08T12:40:59;36.85;35.35;38.29;;
41704;Laerm;861;48.808;9.006;2024-03-08T12:43:26;36.84;35.47;38.18;;
41704;Laerm;861;48.808;9.006;2024-03-08T12:45:56;36.96;35.57;38.40;;
41704;Laerm;861;48.808;9.006;2024-03-08T12:48:24;37.12;35.64;38.51;;
41704;Laerm;861;48.808;9.006;2024-03-08T12:50:51;37.10;35.85;38.51;;
41704;Laerm;861;48.808;9.006;2024-03-08T12:53:18;37.05;35.38;39.18;;
41704;Laerm;861;48.808;9.006;2024-03-08T12:55:45;37.05;35.67;38.26;;
41704;Laerm;861;48.808;9.006;2024-03-08T12:58:11;37.02;35.46;38.86;;
41704;Laerm;861;48.808;9.006;2024-03-08T13:00:38;37.01;35.59;38.32;;
41704;Laerm;861;48.808;9.006;2024-03-08T13:03:09;36.99;35.44;38.24;;
41704;Laerm;861;48.808;9.006;2024-03-08T13:05:38;36.93;35.33;38.34;;
41704;Laerm;861;48.808;9.006;2024-03-08T13:08:10;36.88;35.61;38.28;;
41704;Laerm;861;48.808;9.006;2024-03-08T13:10:43;36.86;35.29;38.13;;
41704;Laerm;861;48.808;9.006;2024-03-08T13:13:13;36.79;35.33;38.34;;
41704;Laerm;861;48.808;9.006;2024-03-08T13:15:43;36.81;35.45;38.06;;
41704;Laerm;861;48.808;9.006;2024-03-08T13:18:10;36.79;35.40;38.12;;
41704;Laerm;861;48.808;9.006;2024-03-08T13:20:36;36.80;35.44;38.27;;
41704;Laerm;861;48.808;9.006;2024-03-08T13:23:08;36.77;35.35;38.10;;
41704;Laerm;861;48.808;9.006;2024-03-08T13:25:34;36.78;35.33;37.98;;
41704;Laerm;861;48.808;9.006;2024-03-08T13:28:05;36.69;35.40;37.88;;
41704;Laerm;861;48.808;9.006;2024-03-08T13:30:33;36.67;35.29;38.10;;
41704;Laerm;861;48.808;9.006;2024-03-08T13:32:59;36.68;35.32;38.23;;
41704;Laerm;861;48.808;9.006;2024-03-08T13:35:26;36.74;35.40;38.11;;
41704;Laerm;861;48.808;9.006;2024-03-08T13:37:54;36.69;35.16;38.06;;
41704;Laerm;861;48.808;9.006;2024-03-08T13:40:21;36.67;35.07;38.01;;
41704;Laerm;861;48.808;9.006;2024-03-08T13:42:49;36.64;35.02;37.95;;
41704;Laerm;861;48.808;9.006;2024-03-08T13:45:17;36.59;35.39;38.64;;
41704;Laerm;861;48.808;9.006;2024-03-08T13:47:55;36.54;35.01;38.36;;
41704;Laerm;861;48.808;9.006;2024-03-08T13:50:22;36.51;35.07;37.82;;
41704;Laerm;861;48.808;9.006;2024-03-08T13:52:51;36.53;35.10;38.41;;
41704;Laerm;861;48.808;9.006;2024-03-08T13:55:22;36.48;35.09;41.04;;
41704;Laerm;861;48.808;9.006;2024-03-08T13:57:49;36.48;35.15;37.70;;
41704;Laerm;861;48.808;9.006;2024-03-08T14:00:18;36.47;34.98;37.91;;
41704;Laerm;861;48.808;9.006;2024-03-08T14:02:48;36.46;35.12;37.98;;
41704;Laerm;861;48.808;9.006;2024-03-08T14:05:15;36.47;35.17;37.76;;
41704;Laerm;861;48.808;9.006;2024-03-08T14:07:43;36.46;35.17;37.69;;
41704;Laerm;861;48.808;9.006;2024-03-08T14:10:12;36.46;35.14;38.01;;
41704;Laerm;861;48.808;9.006;2024-03-08T14:12:39;36.46;35.08;37.68;;
41704;Laerm;861;48.808;9.006;2024-03-08T14:15:06;36.38;34.87;37.62;;
41704;Laerm;861;48.808;9.006;2024-03-08T14:17:34;36.31;34.86;37.98;;
41704;Laerm;861;48.808;9.006;2024-03-08T14:20:02;36.29;34.80;37.76;;
41704;Laerm;861;48.808;9.006;2024-03-08T14:22:29;36.32;34.90;37.83;;